createdAt,value
2023-05-17T00:01:24.762Z,15.00
2023-05-17T00:03:54.440Z,15.00
2023-05-17T00:06:21.800Z,15.00
2023-05-17T00:08:51.917Z,14.90
2023-05-17T00:11:19.366Z,15.00
2023-05-17T00:13:46.680Z,15.00
2023-05-17T00:16:14.066Z,15.00
2023-05-17T00:18:41.625Z,15.00
2023-05-17T00:21:09.127Z,15.00
2023-05-17T00:23:36.548Z,14.90
2023-05-17T00:26:03.900Z,14.90
2023-05-17T00:28:31.368Z,14.90
2023-05-17T00:30:58.720Z,14.80
2023-05-17T00:33:26.123Z,14.80
2023-05-17T00:35:53.488Z,14.80
2023-05-17T00:38:21.002Z,14.80
2023-05-17T00:40:50.375Z,14.80
2023-05-17T00:43:17.788Z,14.80
2023-05-17T00:45:45.168Z,14.80
2023-05-17T00:48:12.720Z,14.80
2023-05-17T00:50:40.287Z,14.90
2023-05-17T00:53:09.516Z,14.90
2023-05-17T00:55:36.925Z,15.00
2023-05-17T00:58:04.721Z,15.00
2023-05-17T01:00:34.873Z,15.00
2023-05-17T01:03:02.795Z,15.00
2023-05-17T01:05:31.044Z,15.00
2023-05-17T01:07:58.658Z,15.00
2023-05-17T01:10:40.253Z,15.00
2023-05-17T01:13:18.722Z,15.00
2023-05-17T01:16:47.276Z,15.00
2023-05-17T01:19:29.682Z,15.00
2023-05-17T01:22:04.887Z,15.10
2023-05-17T01:24:46.079Z,15.10
2023-05-17T01:27:15.962Z,15.10
2023-05-17T01:29:46.097Z,15.10
2023-05-17T01:32:16.396Z,15.10
2023-05-17T01:34:44.226Z,15.10
2023-05-17T01:37:11.679Z,15.20
2023-05-17T01:39:39.171Z,15.30
2023-05-17T01:42:23.385Z,15.40
2023-05-17T01:45:18.487Z,15.50
2023-05-17T01:48:18.601Z,15.50
2023-05-17T01:50:51.321Z,15.50
2023-05-17T01:53:33.322Z,15.50
2023-05-17T01:56:13.197Z,15.50
2023-05-17T01:58:46.727Z,15.50
2023-05-17T02:01:16.531Z,15.50
2023-05-17T02:03:44.013Z,15.50
2023-05-17T02:06:11.919Z,15.60
2023-05-17T02:08:41.559Z,15.60
2023-05-17T02:11:09.120Z,15.60
2023-05-17T02:13:36.593Z,15.50
2023-05-17T02:16:04.546Z,15.50
2023-05-17T02:18:35.756Z,15.60
2023-05-17T02:21:04.151Z,15.60
2023-05-17T02:23:31.529Z,15.50
2023-05-17T02:25:58.863Z,15.60
2023-05-17T02:28:28.051Z,15.60
2023-05-17T02:30:56.703Z,15.50
2023-05-17T02:33:24.452Z,15.60
2023-05-17T02:35:52.133Z,15.60
2023-05-17T02:38:20.174Z,15.60
2023-05-17T02:40:47.529Z,15.70
2023-05-17T02:43:14.813Z,15.70
2023-05-17T02:45:44.847Z,15.60
2023-05-17T02:48:13.608Z,15.60
2023-05-17T02:50:43.342Z,15.60
2023-05-17T02:53:10.779Z,15.50
2023-05-17T02:55:38.224Z,15.50
2023-05-17T02:58:07.122Z,15.40
2023-05-17T03:00:36.324Z,15.40
2023-05-17T03:03:03.676Z,15.30
2023-05-17T03:05:34.197Z,15.30
2023-05-17T03:08:01.698Z,15.20
2023-05-17T03:10:29.108Z,15.20
2023-05-17T03:12:56.813Z,15.10
2023-05-17T03:15:30.144Z,15.10
2023-05-17T03:17:57.826Z,15.10
2023-05-17T03:20:26.761Z,15.20
2023-05-17T03:22:54.260Z,15.20
2023-05-17T03:25:21.836Z,15.20
2023-05-17T03:27:50.021Z,15.20
2023-05-17T03:30:17.585Z,15.20
2023-05-17T03:32:46.355Z,15.20
2023-05-17T03:35:14.120Z,15.20
2023-05-17T03:37:44.850Z,15.10
2023-05-17T03:40:13.126Z,15.10
2023-05-17T03:42:41.519Z,15.10
2023-05-17T03:45:11.113Z,15.10
2023-05-17T03:47:38.615Z,15.00
2023-05-17T03:50:07.153Z,15.00
2023-05-17T03:52:35.427Z,15.10
2023-05-17T03:55:03.232Z,15.10
2023-05-17T03:57:31.626Z,15.10
2023-05-17T03:59:59.439Z,15.20
2023-05-17T04:02:27.077Z,15.20
2023-05-17T04:04:54.828Z,15.20
2023-05-17T04:07:23.866Z,15.30
2023-05-17T04:09:51.184Z,15.20
2023-05-17T04:12:18.699Z,15.20
2023-05-17T04:14:46.065Z,15.30
2023-05-17T04:17:16.271Z,15.30
2023-05-17T04:19:47.430Z,15.30
2023-05-17T04:22:15.027Z,15.30
2023-05-17T04:24:43.022Z,15.30
2023-05-17T04:27:10.575Z,15.30
2023-05-17T04:29:38.010Z,15.30
2023-05-17T04:32:06.048Z,15.30
2023-05-17T04:34:33.444Z,15.40
2023-05-17T04:37:02.331Z,15.40
2023-05-17T04:39:34.531Z,15.50
2023-05-17T04:42:03.850Z,15.60
2023-05-17T04:44:35.467Z,15.60
2023-05-17T04:47:04.153Z,15.60
2023-05-17T04:49:31.752Z,15.70
2023-05-17T04:51:59.220Z,15.80
2023-05-17T04:54:27.296Z,15.90
2023-05-17T04:56:54.824Z,15.90
2023-05-17T04:59:42.088Z,16.00
2023-05-17T05:02:10.777Z,16.00
2023-05-17T05:04:38.307Z,16.10
2023-05-17T05:07:06.636Z,16.10
2023-05-17T05:09:34.381Z,16.20
2023-05-17T05:12:01.866Z,16.30
2023-05-17T05:14:31.304Z,16.30
2023-05-17T05:16:59.104Z,16.40
2023-05-17T05:19:26.567Z,16.40
2023-05-17T05:21:55.667Z,16.50
2023-05-17T05:24:23.733Z,16.50
2023-05-17T05:26:51.195Z,16.60
2023-05-17T05:29:20.131Z,16.60
2023-05-17T05:31:47.558Z,16.70
2023-05-17T05:34:16.172Z,16.80
2023-05-17T05:36:44.438Z,16.80
2023-05-17T05:39:12.891Z,16.90
2023-05-17T05:41:40.524Z,16.90
2023-05-17T05:44:08.269Z,16.90
2023-05-17T05:46:35.793Z,17.00
2023-05-17T05:49:04.713Z,17.00
2023-05-17T05:51:33.769Z,17.10
2023-05-17T05:54:01.962Z,17.20
2023-05-17T05:56:29.580Z,17.30
2023-05-17T05:58:58.452Z,17.40
2023-05-17T06:01:26.555Z,17.50
2023-05-17T06:03:57.032Z,17.70
2023-05-17T06:06:24.558Z,17.80
2023-05-17T06:08:52.092Z,17.90
2023-05-17T06:11:21.260Z,18.10
2023-05-17T06:13:48.701Z,18.10
2023-05-17T06:16:16.077Z,18.20
2023-05-17T06:18:46.926Z,18.20
2023-05-17T06:21:16.479Z,18.20
2023-05-17T06:23:43.807Z,18.20
2023-05-17T06:26:11.633Z,18.30
2023-05-17T06:28:39.071Z,18.40
2023-05-17T06:31:06.606Z,18.50
2023-05-17T06:33:34.225Z,18.60
2023-05-17T06:38:33.914Z,18.60
2023-05-17T06:41:01.328Z,18.70
2023-05-17T06:43:28.751Z,18.70
2023-05-17T06:45:56.100Z,18.90
2023-05-17T06:48:23.878Z,19.00
2023-05-17T06:50:51.301Z,19.10
2023-05-17T06:53:19.031Z,19.20
2023-05-17T06:55:49.358Z,19.20
2023-05-17T06:58:16.843Z,19.30
2023-05-17T07:00:44.280Z,19.50
2023-05-17T07:03:12.302Z,19.60
2023-05-17T07:05:42.043Z,19.60
2023-05-17T07:08:09.909Z,19.70
2023-05-17T07:10:37.314Z,19.80
2023-05-17T07:13:04.741Z,19.80
2023-05-17T07:15:38.121Z,19.80
2023-05-17T07:18:05.733Z,19.90
2023-05-17T07:20:33.098Z,20.00
2023-05-17T07:23:01.569Z,20.00
2023-05-17T07:25:29.162Z,20.00
2023-05-17T07:27:56.668Z,20.10
2023-05-17T07:30:24.177Z,20.20
2023-05-17T07:32:52.163Z,20.30
2023-05-17T07:35:23.403Z,20.30
2023-05-17T07:38:01.506Z,20.30
2023-05-17T07:40:29.580Z,20.30
2023-05-17T07:42:56.944Z,20.40
2023-05-17T07:45:24.512Z,20.60
2023-05-17T07:47:52.767Z,20.60
2023-05-17T07:50:20.298Z,20.60
2023-05-17T07:52:50.244Z,20.60
2023-05-17T07:55:17.690Z,20.70
2023-05-17T07:57:47.580Z,20.70
2023-05-17T08:00:15.674Z,20.90
2023-05-17T08:02:43.786Z,21.00
2023-05-17T08:05:11.570Z,21.00
2023-05-17T08:07:38.969Z,21.20
2023-05-17T08:10:07.116Z,21.30
2023-05-17T08:12:34.666Z,21.30
2023-05-17T08:15:02.210Z,21.30
2023-05-17T08:17:32.749Z,21.30
2023-05-17T08:20:00.240Z,21.30
2023-05-17T08:22:29.833Z,21.20
2023-05-17T08:24:57.278Z,21.30
2023-05-17T08:27:28.248Z,21.50
2023-05-17T08:30:05.326Z,21.50
2023-05-17T08:32:37.901Z,21.60
2023-05-17T08:35:06.363Z,21.80
2023-05-17T08:37:33.805Z,21.80
2023-05-17T08:40:01.309Z,21.60
2023-05-17T08:42:30.209Z,21.70
2023-05-17T08:44:57.519Z,21.80
2023-05-17T08:47:26.648Z,21.90
2023-05-17T08:50:03.235Z,22.10
2023-05-17T08:52:32.510Z,22.20
2023-05-17T08:55:04.296Z,22.30
2023-05-17T08:57:34.014Z,22.30
2023-05-17T09:00:01.811Z,22.40
2023-05-17T09:02:33.822Z,22.60
2023-05-17T09:05:02.128Z,22.90
2023-05-17T09:07:29.602Z,22.90
2023-05-17T09:09:57.156Z,22.90
2023-05-17T09:12:25.816Z,23.00
2023-05-17T09:14:53.264Z,23.10
2023-05-17T09:17:22.172Z,23.10
2023-05-17T09:19:50.642Z,23.00
2023-05-17T09:22:22.956Z,23.10
2023-05-17T09:24:51.055Z,23.20
2023-05-17T09:27:19.173Z,23.30
2023-05-17T09:29:46.762Z,23.00
2023-05-17T09:32:16.189Z,22.90
2023-05-17T09:34:46.195Z,23.10
2023-05-17T09:37:17.595Z,23.10
2023-05-17T09:39:47.092Z,23.00
2023-05-17T09:42:17.949Z,22.80
2023-05-17T09:44:50.747Z,22.70
2023-05-17T09:47:29.371Z,22.90
2023-05-17T09:49:58.538Z,23.10
2023-05-17T09:52:32.243Z,23.20
2023-05-17T09:55:00.910Z,23.20
2023-05-17T09:57:37.178Z,23.20
2023-05-17T10:00:12.104Z,23.20
2023-05-17T10:02:48.126Z,23.20
2023-05-17T10:05:18.065Z,23.30
2023-05-17T10:07:48.991Z,23.20
2023-05-17T10:10:18.378Z,23.40
2023-05-17T10:12:47.157Z,23.40
2023-05-17T10:15:17.962Z,23.40
2023-05-17T10:17:49.366Z,23.50
2023-05-17T10:20:17.819Z,23.60
2023-05-17T10:22:50.196Z,23.70
2023-05-17T10:25:18.237Z,23.70
2023-05-17T10:27:47.538Z,23.90
2023-05-17T10:30:16.018Z,24.00
2023-05-17T10:32:44.315Z,24.00
2023-05-17T10:35:15.635Z,24.30
2023-05-17T10:37:43.092Z,24.40
2023-05-17T10:40:14.249Z,24.40
2023-05-17T10:42:51.104Z,24.60
2023-05-17T10:45:22.825Z,24.60
2023-05-17T10:47:53.327Z,24.50
2023-05-17T10:50:25.571Z,24.50
2023-05-17T10:52:56.115Z,24.40
2023-05-17T10:55:25.440Z,24.50
2023-05-17T10:58:17.507Z,24.80
2023-05-17T11:00:52.078Z,25.10
2023-05-17T11:03:22.910Z,25.40
2023-05-17T11:06:24.641Z,25.60
2023-05-17T11:09:19.106Z,25.90
2023-05-17T11:12:05.555Z,26.20
2023-05-17T11:14:53.673Z,26.70
2023-05-17T11:17:34.331Z,26.90
2023-05-17T11:20:13.585Z,26.80
2023-05-17T11:22:58.023Z,26.80
2023-05-17T11:25:29.892Z,27.10
2023-05-17T11:28:00.343Z,27.30
2023-05-17T11:30:36.375Z,27.00
2023-05-17T11:33:20.548Z,27.30
2023-05-17T11:36:05.831Z,27.60
2023-05-17T11:38:34.641Z,27.60
2023-05-17T11:43:59.496Z,28.00
2023-05-17T11:46:43.149Z,27.80
2023-05-17T11:49:13.663Z,27.70
2023-05-17T11:51:55.465Z,27.90
2023-05-17T11:54:26.299Z,27.60
2023-05-17T11:57:03.289Z,27.70
2023-05-17T11:59:38.905Z,28.00
2023-05-17T12:02:09.038Z,27.80
2023-05-17T12:04:39.616Z,27.80
2023-05-17T12:07:11.444Z,28.30
2023-05-17T12:09:42.434Z,28.30
2023-05-17T12:12:31.968Z,28.30
2023-05-17T12:14:59.867Z,28.30
2023-05-17T12:17:35.934Z,28.70
2023-05-17T12:20:10.575Z,29.30
2023-05-17T12:22:57.375Z,29.10
2023-05-17T12:25:29.775Z,28.60
2023-05-17T12:28:23.158Z,28.10
2023-05-17T12:31:03.284Z,27.80
2023-05-17T12:33:42.197Z,28.10
2023-05-17T12:36:11.709Z,27.70
2023-05-17T12:38:42.540Z,27.70
2023-05-17T12:41:15.125Z,28.50
2023-05-17T12:43:45.645Z,29.60
2023-05-17T12:46:15.345Z,29.60
2023-05-17T12:48:43.850Z,29.30
2023-05-17T12:51:12.501Z,29.80
2023-05-17T12:54:01.724Z,28.20
2023-05-17T12:56:30.428Z,26.50
2023-05-17T12:59:36.682Z,26.10
2023-05-17T13:02:04.236Z,25.70
2023-05-17T13:04:34.422Z,25.90
2023-05-17T13:07:04.250Z,25.60
2023-05-17T13:09:37.243Z,25.60
2023-05-17T13:12:08.441Z,24.80
2023-05-17T13:14:45.776Z,24.80
2023-05-17T13:17:17.303Z,25.50
2023-05-17T13:19:44.811Z,25.40
2023-05-17T13:22:14.966Z,25.20
2023-05-17T13:24:44.349Z,24.70
2023-05-17T13:27:12.346Z,24.80
2023-05-17T13:29:42.527Z,24.70
2023-05-17T13:32:12.808Z,24.40
2023-05-17T13:34:41.602Z,24.50
2023-05-17T13:37:11.969Z,24.70
2023-05-17T13:39:41.292Z,24.60
2023-05-17T13:42:09.946Z,24.40
2023-05-17T13:44:38.592Z,24.80
2023-05-17T13:47:06.415Z,25.00
2023-05-17T13:49:33.935Z,24.80
2023-05-17T13:52:04.112Z,24.10
2023-05-17T13:54:31.597Z,24.20
2023-05-17T13:56:59.006Z,24.20
2023-05-17T13:59:29.304Z,24.40
2023-05-17T14:01:57.922Z,24.00
2023-05-17T14:04:25.818Z,23.50
2023-05-17T14:06:55.065Z,23.60
2023-05-17T14:09:22.623Z,23.60
2023-05-17T14:11:49.993Z,23.60
2023-05-17T14:14:17.383Z,23.30
2023-05-17T14:16:44.715Z,23.30
2023-05-17T14:19:12.215Z,23.10
2023-05-17T14:21:39.732Z,22.80
2023-05-17T14:24:07.411Z,22.50
2023-05-17T14:26:35.011Z,22.50
2023-05-17T14:29:02.357Z,22.60
2023-05-17T14:31:30.434Z,22.70
2023-05-17T14:33:57.948Z,22.70
2023-05-17T14:36:25.525Z,22.80
2023-05-17T14:38:55.355Z,23.00
2023-05-17T14:41:22.808Z,23.00
2023-05-17T14:43:50.200Z,22.90
2023-05-17T14:46:17.660Z,22.80
2023-05-17T14:48:44.980Z,22.90
2023-05-17T14:51:12.588Z,22.70
2023-05-17T14:53:39.975Z,22.70
2023-05-17T14:56:08.033Z,22.70
2023-05-17T14:58:35.367Z,22.50
2023-05-17T15:01:02.714Z,22.20
2023-05-17T15:03:33.711Z,22.10
2023-05-17T15:06:02.732Z,22.20
2023-05-17T15:08:32.901Z,22.40
2023-05-17T15:11:00.314Z,22.20
2023-05-17T15:13:28.280Z,22.20
2023-05-17T15:15:55.615Z,22.20
2023-05-17T15:18:23.051Z,22.10
2023-05-17T15:20:50.604Z,22.00
2023-05-17T15:23:18.035Z,21.80
2023-05-17T15:25:45.464Z,21.90
2023-05-17T15:28:12.958Z,21.90
2023-05-17T15:30:42.255Z,21.90
2023-05-17T15:33:10.056Z,22.00
2023-05-17T15:35:41.741Z,22.00
2023-05-17T15:38:09.137Z,22.10
2023-05-17T15:40:36.687Z,22.20
2023-05-17T15:43:04.076Z,22.30
2023-05-17T15:45:31.808Z,22.30
2023-05-17T15:48:04.350Z,22.10
2023-05-17T15:50:31.861Z,21.90
2023-05-17T15:53:01.209Z,22.00
2023-05-17T15:55:30.058Z,21.90
2023-05-17T15:57:57.567Z,21.90
2023-05-17T16:00:25.301Z,22.10
2023-05-17T16:02:52.885Z,22.10
2023-05-17T16:05:23.258Z,21.90
2023-05-17T16:07:50.889Z,21.90
2023-05-17T16:10:18.425Z,22.00
2023-05-17T16:12:47.569Z,22.10
2023-05-17T16:15:15.084Z,22.00
2023-05-17T16:17:42.547Z,21.90
2023-05-17T16:20:10.474Z,21.80
2023-05-17T16:22:42.657Z,21.70
2023-05-17T16:25:10.083Z,21.90
2023-05-17T16:27:37.419Z,22.00
2023-05-17T16:30:05.359Z,22.00
2023-05-17T16:32:32.808Z,21.70
2023-05-17T16:35:01.424Z,21.60
2023-05-17T16:37:28.987Z,21.50
2023-05-17T16:39:56.430Z,21.50
2023-05-17T16:42:23.892Z,21.30
2023-05-17T16:44:51.906Z,21.30
2023-05-17T16:47:23.847Z,21.30
2023-05-17T16:49:51.842Z,21.30
2023-05-17T16:52:19.514Z,21.40
2023-05-17T16:54:46.868Z,21.40
2023-05-17T16:57:15.689Z,21.30
2023-05-17T16:59:43.287Z,21.20
2023-05-17T17:02:10.797Z,21.00
2023-05-17T17:04:38.300Z,21.00
2023-05-17T17:07:05.667Z,21.10
2023-05-17T17:09:33.039Z,21.10
2023-05-17T17:12:04.722Z,21.00
2023-05-17T17:14:40.764Z,21.00
2023-05-17T17:17:08.311Z,20.80
2023-05-17T17:19:35.807Z,20.70
2023-05-17T17:22:05.739Z,20.60
2023-05-17T17:24:34.253Z,20.60
2023-05-17T17:27:01.698Z,20.40
2023-05-17T17:29:29.148Z,20.50
2023-05-17T17:31:57.365Z,20.40
2023-05-17T17:34:24.807Z,20.30
2023-05-17T17:36:52.208Z,20.20
2023-05-17T17:39:19.516Z,20.10
2023-05-17T17:41:47.010Z,20.00
2023-05-17T17:44:15.351Z,20.00
2023-05-17T17:46:42.817Z,20.00
2023-05-17T17:49:10.148Z,19.90
2023-05-17T17:51:37.556Z,19.90
2023-05-17T17:54:05.820Z,19.80
2023-05-17T17:56:33.378Z,19.70
2023-05-17T17:59:00.752Z,19.60
2023-05-17T18:01:29.804Z,19.60
2023-05-17T18:03:57.380Z,19.50
2023-05-17T18:06:24.969Z,19.40
2023-05-17T18:08:52.214Z,19.30
2023-05-17T18:11:19.667Z,19.20
2023-05-17T18:13:47.103Z,19.20
2023-05-17T18:16:14.527Z,19.10
2023-05-17T18:18:42.176Z,19.10
2023-05-17T18:21:10.196Z,19.00
2023-05-17T18:23:37.599Z,19.00
2023-05-17T18:26:05.028Z,19.00
2023-05-17T18:28:41.894Z,18.90
2023-05-17T18:31:10.840Z,18.90
2023-05-17T18:33:38.210Z,18.90
2023-05-17T18:36:05.808Z,18.80
2023-05-17T18:38:33.261Z,18.80
2023-05-17T18:41:01.831Z,18.80
2023-05-17T18:43:31.543Z,18.80
2023-05-17T18:45:58.939Z,18.70
2023-05-17T18:48:26.793Z,18.70
2023-05-17T18:50:54.330Z,18.70
2023-05-17T18:53:21.667Z,18.60
2023-05-17T18:55:49.069Z,18.60
2023-05-17T18:58:16.446Z,18.60
2023-05-17T19:00:45.472Z,18.50
2023-05-17T19:03:12.805Z,18.50
2023-05-17T19:05:40.218Z,18.50
2023-05-17T19:08:07.531Z,18.50
2023-05-17T19:10:35.047Z,18.50
2023-05-17T19:13:02.408Z,18.50
2023-05-17T19:15:29.813Z,18.50
2023-05-17T19:17:57.441Z,18.40
2023-05-17T19:20:27.889Z,18.40
2023-05-17T19:22:55.588Z,18.40
2023-05-17T19:25:22.987Z,18.30
2023-05-17T19:27:50.657Z,18.30
2023-05-17T19:30:21.978Z,18.20
2023-05-17T19:32:50.442Z,18.20
2023-05-17T19:35:18.177Z,18.10
2023-05-17T19:37:45.559Z,18.10
2023-05-17T19:40:15.272Z,18.10
2023-05-17T19:42:43.142Z,18.10
2023-05-17T19:45:11.252Z,18.10
2023-05-17T19:47:39.939Z,18.10
2023-05-17T19:50:08.532Z,18.10
2023-05-17T19:52:36.490Z,18.00
2023-05-17T19:55:04.406Z,18.00
2023-05-17T19:57:32.192Z,18.00
2023-05-17T19:59:59.523Z,18.00
2023-05-17T20:02:26.976Z,18.00
2023-05-17T20:04:54.369Z,18.00
2023-05-17T20:07:28.144Z,18.00
2023-05-17T20:09:56.103Z,18.00
2023-05-17T20:12:25.924Z,17.90
2023-05-17T20:14:55.397Z,17.90
2023-05-17T20:17:23.125Z,17.90
2023-05-17T20:19:51.508Z,17.80
2023-05-17T20:22:21.189Z,17.90
2023-05-17T20:24:48.991Z,18.00
2023-05-17T20:27:17.071Z,18.00
2023-05-17T20:29:44.648Z,18.00
2023-05-17T20:32:12.540Z,18.00
2023-05-17T20:34:40.237Z,17.90
2023-05-17T20:37:13.324Z,17.90
2023-05-17T20:39:41.189Z,17.90
2023-05-17T20:42:08.971Z,17.90
2023-05-17T20:44:37.079Z,17.80
2023-05-17T20:47:06.818Z,17.70
2023-05-17T20:49:34.844Z,17.70
2023-05-17T20:52:03.579Z,17.60
2023-05-17T20:54:33.953Z,17.60
2023-05-17T20:57:02.447Z,17.50
2023-05-17T20:59:29.789Z,17.50
2023-05-17T21:01:57.632Z,17.50
2023-05-17T21:04:27.497Z,17.50
2023-05-17T21:06:58.675Z,17.50
2023-05-17T21:09:27.382Z,17.50
2023-05-17T21:12:01.425Z,17.50
2023-05-17T21:14:35.028Z,17.50
2023-05-17T21:17:08.328Z,17.40
2023-05-17T21:19:35.721Z,17.40
2023-05-17T21:22:03.353Z,17.30
2023-05-17T21:24:31.071Z,17.20
2023-05-17T21:26:58.694Z,17.20
2023-05-17T21:29:26.123Z,17.20
2023-05-17T21:31:53.579Z,17.10
2023-05-17T21:34:21.009Z,17.00
2023-05-17T21:36:48.242Z,17.00
2023-05-17T21:39:15.797Z,17.00
2023-05-17T21:41:43.128Z,17.00
2023-05-17T21:44:18.038Z,16.90
2023-05-17T21:46:53.653Z,16.90
2023-05-17T21:49:21.034Z,16.80
2023-05-17T21:51:48.524Z,16.80
2023-05-17T21:54:15.924Z,16.80
2023-05-17T21:56:43.213Z,16.70
2023-05-17T21:59:10.600Z,16.60
2023-05-17T22:01:38.110Z,16.60
2023-05-17T22:04:06.059Z,16.50
2023-05-17T22:06:33.524Z,16.50
2023-05-17T22:09:00.860Z,16.40
2023-05-17T22:11:28.432Z,16.40
2023-05-17T22:13:56.269Z,16.30
2023-05-17T22:16:24.024Z,16.30
2023-05-17T22:18:54.536Z,16.20
2023-05-17T22:21:22.748Z,16.20
2023-05-17T22:23:50.202Z,16.20
2023-05-17T22:26:17.562Z,16.20
2023-05-17T22:28:44.969Z,16.10
2023-05-17T22:31:14.894Z,16.10
2023-05-17T22:33:42.416Z,16.10
2023-05-17T22:36:14.224Z,16.00
2023-05-17T22:38:42.838Z,16.00
2023-05-17T22:41:11.152Z,15.90
2023-05-17T22:43:39.571Z,15.80
2023-05-17T22:46:06.909Z,15.80
2023-05-17T22:48:37.512Z,15.80
2023-05-17T22:51:05.386Z,15.80
2023-05-17T22:53:32.616Z,15.80
2023-05-17T22:55:59.949Z,15.80
2023-05-17T22:58:27.322Z,15.70
2023-05-17T23:00:54.739Z,15.70
2023-05-17T23:03:22.081Z,15.70
2023-05-17T23:05:49.551Z,15.70
2023-05-17T23:08:16.996Z,15.60
2023-05-17T23:10:44.928Z,15.60
2023-05-17T23:13:13.092Z,15.60
2023-05-17T23:15:40.943Z,15.60
2023-05-17T23:18:08.310Z,15.50
2023-05-17T23:20:35.814Z,15.50
2023-05-17T23:23:03.094Z,15.50
2023-05-17T23:25:31.763Z,15.50
2023-05-17T23:27:59.277Z,15.40
2023-05-17T23:30:26.635Z,15.40
2023-05-17T23:32:55.450Z,15.30
2023-05-17T23:35:24.079Z,15.30
2023-05-17T23:37:51.674Z,15.30
2023-05-17T23:40:19.057Z,15.30
2023-05-17T23:42:49.564Z,15.30
2023-05-17T23:45:16.928Z,15.30
2023-05-17T23:47:44.644Z,15.40
2023-05-17T23:50:12.282Z,15.40
2023-05-17T23:52:39.970Z,15.40
2023-05-17T23:55:08.049Z,15.40
2023-05-17T23:57:35.848Z,15.40
